sensor_id;sensor_type;location;lat;lon;timestamp;pressure;altitude;pressure_sealevel;temperature;humidity
19831;BME280;10076;52.008;4.708;2024-03-07T00:01:57;102606.31;;;9.81;100.00
19831;BME280;10076;52.008;4.708;2024-03-07T00:04:22;102612.75;;;9.74;100.00
19831;BME280;10076;52.008;4.708;2024-03-07T00:06:48;102613.84;;;9.68;100.00
19831;BME280;10076;52.008;4.708;2024-03-07T00:09:13;102619.19;;;9.67;100.00
19831;BME280;10076;52.008;4.708;2024-03-07T00:11:40;102613.16;;;9.63;100.00
19831;BME280;10076;52.008;4.708;2024-03-07T00:14:06;102612.31;;;9.63;100.00
19831;BME280;10076;52.008;4.708;2024-03-07T00:16:31;102610.47;;;9.65;100.00
19831;BME280;10076;52.008;4.708;2024-03-07T00:18:58;102614.13;;;9.61;100.00
19831;BME280;10076;52.008;4.708;2024-03-07T00:21:24;102622.19;;;9.58;100.00
19831;BME280;10076;52.008;4.708;2024-03-07T00:23:49;102614.50;;;9.52;100.00
19831;BME280;10076;52.008;4.708;2024-03-07T00:26:14;102616.22;;;9.53;100.00
19831;BME280;10076;52.008;4.708;2024-03-07T00:28:40;102615.41;;;9.51;100.00
19831;BME280;10076;52.008;4.708;2024-03-07T00:31:05;102613.75;;;9.49;100.00
19831;BME280;10076;52.008;4.708;2024-03-07T00:33:32;102622.81;;;9.42;100.00
19831;BME280;10076;52.008;4.708;2024-03-07T00:35:58;102610.59;;;9.39;100.00
19831;BME280;10076;52.008;4.708;2024-03-07T00:38:23;102608.66;;;9.44;100.00
19831;BME280;10076;52.008;4.708;2024-03-07T00:40:48;102607.06;;;9.40;100.00
19831;BME280;10076;52.008;4.708;2024-03-07T00:43:14;102614.84;;;9.43;100.00
19831;BME280;10076;52.008;4.708;2024-03-07T00:45:40;102615.06;;;9.37;100.00
19831;BME280;10076;52.008;4.708;2024-03-07T00:48:05;102618.06;;;9.28;100.00
19831;BME280;10076;52.008;4.708;2024-03-07T00:50:30;102610.94;;;9.30;100.00
19831;BME280;10076;52.008;4.708;2024-03-07T00:52:57;102608.66;;;9.44;100.00
19831;BME280;10076;52.008;4.708;2024-03-07T00:55:22;102609.25;;;9.29;100.00
19831;BME280;10076;52.008;4.708;2024-03-07T00:57:48;102611.00;;;9.29;100.00
19831;BME280;10076;52.008;4.708;2024-03-07T01:00:13;102613.00;;;9.22;100.00
19831;BME280;10076;52.008;4.708;2024-03-07T01:02:42;102609.69;;;9.17;100.00
19831;BME280;10076;52.008;4.708;2024-03-07T01:05:12;102610.28;;;9.01;100.00
19831;BME280;10076;52.008;4.708;2024-03-07T01:07:40;102603.75;;;9.12;100.00
19831;BME280;10076;52.008;4.708;2024-03-07T01:10:06;102599.59;;;9.05;100.00
19831;BME280;10076;52.008;4.708;2024-03-07T01:12:34;102601.66;;;9.20;100.00
19831;BME280;10076;52.008;4.708;2024-03-07T01:14:59;102596.31;;;8.99;100.00
19831;BME280;10076;52.008;4.708;2024-03-07T01:17:25;102592.66;;;9.03;100.00
19831;BME280;10076;52.008;4.708;2024-03-07T01:19:51;102596.44;;;8.96;100.00
19831;BME280;10076;52.008;4.708;2024-03-07T01:22:16;102594.47;;;9.01;100.00
19831;BME280;10076;52.008;4.708;2024-03-07T01:24:42;102600.94;;;8.93;100.00
19831;BME280;10076;52.008;4.708;2024-03-07T01:27:08;102599.13;;;8.94;100.00
19831;BME280;10076;52.008;4.708;2024-03-07T01:29:34;102591.09;;;8.97;100.00
19831;BME280;10076;52.008;4.708;2024-03-07T01:31:59;102593.25;;;8.87;100.00
19831;BME280;10076;52.008;4.708;2024-03-07T01:34:25;102585.34;;;8.87;100.00
19831;BME280;10076;52.008;4.708;2024-03-07T01:36:50;102591.91;;;8.75;100.00
19831;BME280;10076;52.008;4.708;2024-03-07T01:39:15;102583.97;;;8.77;100.00
19831;BME280;10076;52.008;4.708;2024-03-07T01:41:41;102585.72;;;8.76;100.00
19831;BME280;10076;52.008;4.708;2024-03-07T01:44:06;102589.03;;;8.83;100.00
19831;BME280;10076;52.008;4.708;2024-03-07T01:46:32;102582.03;;;8.82;100.00
19831;BME280;10076;52.008;4.708;2024-03-07T01:48:58;102587.53;;;8.76;100.00
19831;BME280;10076;52.008;4.708;2024-03-07T01:51:24;102590.97;;;8.78;100.00
19831;BME280;10076;52.008;4.708;2024-03-07T01:53:51;102586.13;;;8.66;100.00
19831;BME280;10076;52.008;4.708;2024-03-07T01:56:17;102580.38;;;8.55;100.00
19831;BME280;10076;52.008;4.708;2024-03-07T01:58:46;102591.34;;;8.67;100.00
19831;BME280;10076;52.008;4.708;2024-03-07T02:01:11;102587.13;;;8.62;100.00
19831;BME280;10076;52.008;4.708;2024-03-07T02:03:39;102580.66;;;8.72;100.00
19831;BME280;10076;52.008;4.708;2024-03-07T02:06:05;102582.19;;;8.53;100.00
19831;BME280;10076;52.008;4.708;2024-03-07T02:08:30;102581.97;;;8.59;100.00
19831;BME280;10076;52.008;4.708;2024-03-07T02:10:57;102578.44;;;8.60;100.00
19831;BME280;10076;52.008;4.708;2024-03-07T02:13:23;102566.97;;;8.61;100.00
19831;BME280;10076;52.008;4.708;2024-03-07T02:15:48;102572.47;;;8.55;100.00
19831;BME280;10076;52.008;4.708;2024-03-07T02:18:14;102575.00;;;8.58;100.00
19831;BME280;10076;52.008;4.708;2024-03-07T02:20:48;102579.00;;;8.68;100.00
19831;BME280;10076;52.008;4.708;2024-03-07T02:23:13;102578.47;;;8.58;100.00
19831;BME280;10076;52.008;4.708;2024-03-07T02:25:39;102569.88;;;8.53;100.00
19831;BME280;10076;52.008;4.708;2024-03-07T02:28:05;102567.78;;;8.38;100.00
19831;BME280;10076;52.008;4.708;2024-03-07T02:30:30;102573.69;;;8.45;100.00
19831;BME280;10076;52.008;4.708;2024-03-07T02:32:58;102560.72;;;8.40;100.00
19831;BME280;10076;52.008;4.708;2024-03-07T02:35:32;102559.94;;;8.37;100.00
19831;BME280;10076;52.008;4.708;2024-03-07T02:37:58;102563.16;;;8.45;100.00
19831;BME280;10076;52.008;4.708;2024-03-07T02:40:23;102562.19;;;8.47;100.00
19831;BME280;10076;52.008;4.708;2024-03-07T02:42:49;102554.56;;;8.40;100.00
19831;BME280;10076;52.008;4.708;2024-03-07T02:45:14;102566.31;;;8.30;100.00
19831;BME280;10076;52.008;4.708;2024-03-07T02:47:40;102559.28;;;8.30;100.00
19831;BME280;10076;52.008;4.708;2024-03-07T02:50:08;102552.56;;;8.22;100.00
19831;BME280;10076;52.008;4.708;2024-03-07T02:52:34;102549.13;;;8.20;100.00
19831;BME280;10076;52.008;4.708;2024-03-07T02:54:59;102558.94;;;8.15;100.00
19831;BME280;10076;52.008;4.708;2024-03-07T02:57:25;102548.56;;;8.09;100.00
19831;BME280;10076;52.008;4.708;2024-03-07T02:59:50;102551.31;;;8.06;100.00
19831;BME280;10076;52.008;4.708;2024-03-07T03:02:16;102552.81;;;7.87;100.00
19831;BME280;10076;52.008;4.708;2024-03-07T03:04:41;102545.69;;;7.91;100.00
19831;BME280;10076;52.008;4.708;2024-03-07T03:07:06;102544.47;;;8.01;100.00
19831;BME280;10076;52.008;4.708;2024-03-07T03:09:32;102541.19;;;7.94;100.00
19831;BME280;10076;52.008;4.708;2024-03-07T03:11:58;102544.53;;;7.99;100.00
19831;BME280;10076;52.008;4.708;2024-03-07T03:14:24;102542.81;;;7.98;100.00
19831;BME280;10076;52.008;4.708;2024-03-07T03:16:49;102541.66;;;8.07;100.00
19831;BME280;10076;52.008;4.708;2024-03-07T03:19:15;102534.69;;;8.06;100.00
19831;BME280;10076;52.008;4.708;2024-03-07T03:21:40;102533.94;;;8.02;100.00
19831;BME280;10076;52.008;4.708;2024-03-07T03:24:06;102543.66;;;7.73;100.00
19831;BME280;10076;52.008;4.708;2024-03-07T03:26:32;102548.84;;;7.74;100.00
19831;BME280;10076;52.008;4.708;2024-03-07T03:28:58;102537.19;;;7.83;100.00
19831;BME280;10076;52.008;4.708;2024-03-07T03:31:23;102539.22;;;7.75;100.00
19831;BME280;10076;52.008;4.708;2024-03-07T03:33:49;102538.34;;;7.74;100.00
19831;BME280;10076;52.008;4.708;2024-03-07T03:36:16;102536.78;;;7.69;100.00
19831;BME280;10076;52.008;4.708;2024-03-07T03:38:41;102531.91;;;7.57;100.00
19831;BME280;10076;52.008;4.708;2024-03-07T03:41:06;102529.22;;;7.58;100.00
19831;BME280;10076;52.008;4.708;2024-03-07T03:43:32;102526.59;;;7.58;100.00
19831;BME280;10076;52.008;4.708;2024-03-07T03:45:57;102527.16;;;7.68;100.00
19831;BME280;10076;52.008;4.708;2024-03-07T03:48:22;102529.28;;;7.84;100.00
19831;BME280;10076;52.008;4.708;2024-03-07T03:50:48;102522.28;;;7.83;100.00
19831;BME280;10076;52.008;4.708;2024-03-07T03:53:13;102518.63;;;7.87;100.00
19831;BME280;10076;52.008;4.708;2024-03-07T03:55:38;102518.56;;;7.90;100.00
19831;BME280;10076;52.008;4.708;2024-03-07T03:58:04;102515.81;;;7.93;100.00
19831;BME280;10076;52.008;4.708;2024-03-07T04:00:30;102514.00;;;7.95;100.00
19831;BME280;10076;52.008;4.708;2024-03-07T04:02:56;102514.13;;;7.91;100.00
19831;BME280;10076;52.008;4.708;2024-03-07T04:05:21;102513.09;;;7.96;100.00
19831;BME280;10076;52.008;4.708;2024-03-07T04:07:46;102511.22;;;8.25;100.00
19831;BME280;10076;52.008;4.708;2024-03-07T04:10:14;102515.63;;;8.25;100.00
19831;BME280;10076;52.008;4.708;2024-03-07T04:12:40;102520.34;;;8.40;100.00
19831;BME280;10076;52.008;4.708;2024-03-07T04:15:07;102519.97;;;8.50;100.00
19831;BME280;10076;52.008;4.708;2024-03-07T04:17:34;102516.47;;;8.50;100.00
19831;BME280;10076;52.008;4.708;2024-03-07T04:20:01;102508.34;;;8.56;100.00
19831;BME280;10076;52.008;4.708;2024-03-07T04:22:27;102507.44;;;8.57;100.00
19831;BME280;10076;52.008;4.708;2024-03-07T04:24:52;102503.00;;;8.59;100.00
19831;BME280;10076;52.008;4.708;2024-03-07T04:27:20;102505.47;;;8.63;100.00
19831;BME280;10076;52.008;4.708;2024-03-07T04:29:46;102508.19;;;8.60;100.00
19831;BME280;10076;52.008;4.708;2024-03-07T04:32:15;102503.59;;;8.42;100.00
19831;BME280;10076;52.008;4.708;2024-03-07T04:34:42;102505.31;;;8.19;100.00
19831;BME280;10076;52.008;4.708;2024-03-07T04:37:07;102507.53;;;8.31;100.00
19831;BME280;10076;52.008;4.708;2024-03-07T04:39:33;102497.16;;;8.26;100.00
19831;BME280;10076;52.008;4.708;2024-03-07T04:41:59;102496.50;;;8.20;100.00
19831;BME280;10076;52.008;4.708;2024-03-07T04:44:31;102500.13;;;8.16;100.00
19831;BME280;10076;52.008;4.708;2024-03-07T04:46:57;102497.81;;;8.07;100.00
19831;BME280;10076;52.008;4.708;2024-03-07T04:49:26;102498.16;;;7.97;100.00
19831;BME280;10076;52.008;4.708;2024-03-07T04:51:53;102503.22;;;8.03;100.00
19831;BME280;10076;52.008;4.708;2024-03-07T04:54:19;102505.00;;;8.02;100.00
19831;BME280;10076;52.008;4.708;2024-03-07T04:56:45;102506.19;;;7.92;100.00
19831;BME280;10076;52.008;4.708;2024-03-07T04:59:12;102499.00;;;7.97;100.00
19831;BME280;10076;52.008;4.708;2024-03-07T05:01:39;102509.75;;;7.91;100.00
19831;BME280;10076;52.008;4.708;2024-03-07T05:04:05;102502.56;;;7.96;100.00
19831;BME280;10076;52.008;4.708;2024-03-07T05:06:31;102496.91;;;7.82;100.00
19831;BME280;10076;52.008;4.708;2024-03-07T05:09:08;102501.13;;;7.86;100.00
19831;BME280;10076;52.008;4.708;2024-03-07T05:11:34;102505.53;;;7.86;100.00
19831;BME280;10076;52.008;4.708;2024-03-07T05:14:00;102501.72;;;7.68;100.00
19831;BME280;10076;52.008;4.708;2024-03-07T05:16:29;102505.09;;;7.73;100.00
19831;BME280;10076;52.008;4.708;2024-03-07T05:18:55;102519.44;;;7.63;100.00
19831;BME280;10076;52.008;4.708;2024-03-07T05:21:24;102516.28;;;7.53;100.00
19831;BME280;10076;52.008;4.708;2024-03-07T05:24:01;102512.47;;;7.62;100.00
19831;BME280;10076;52.008;4.708;2024-03-07T05:26:28;102516.19;;;7.55;100.00
19831;BME280;10076;52.008;4.708;2024-03-07T05:28:53;102510.44;;;7.70;100.00
19831;BME280;10076;52.008;4.708;2024-03-07T05:31:20;102509.09;;;7.57;100.00
19831;BME280;10076;52.008;4.708;2024-03-07T05:33:46;102509.09;;;7.57;100.00
19831;BME280;10076;52.008;4.708;2024-03-07T05:36:11;102509.22;;;7.54;100.00
19831;BME280;10076;52.008;4.708;2024-03-07T05:38:42;102504.41;;;7.40;100.00
19831;BME280;10076;52.008;4.708;2024-03-07T05:41:11;102508.16;;;7.33;100.00
19831;BME280;10076;52.008;4.708;2024-03-07T05:43:38;102509.66;;;7.41;100.00
19831;BME280;10076;52.008;4.708;2024-03-07T05:46:03;102503.56;;;7.39;100.00
19831;BME280;10076;52.008;4.708;2024-03-07T05:48:31;102505.25;;;7.42;100.00
19831;BME280;10076;52.008;4.708;2024-03-07T05:50:57;102502.81;;;7.36;100.00
19831;BME280;10076;52.008;4.708;2024-03-07T05:53:22;102501.38;;;7.26;100.00
19831;BME280;10076;52.008;4.708;2024-03-07T05:55:48;102499.56;;;7.28;100.00
19831;BME280;10076;52.008;4.708;2024-03-07T05:58:13;102500.66;;;7.21;100.00
19831;BME280;10076;52.008;4.708;2024-03-07T06:00:38;102499.75;;;7.22;100.00
19831;BME280;10076;52.008;4.708;2024-03-07T06:03:05;102500.66;;;7.21;100.00
19831;BME280;10076;52.008;4.708;2024-03-07T06:05:30;102500.91;;;7.13;100.00
19831;BME280;10076;52.008;4.708;2024-03-07T06:07:56;102504.44;;;7.12;100.00
19831;BME280;10076;52.008;4.708;2024-03-07T06:10:22;102504.84;;;6.99;100.00
19831;BME280;10076;52.008;4.708;2024-03-07T06:12:51;102501.22;;;7.03;100.00
19831;BME280;10076;52.008;4.708;2024-03-07T06:15:16;102502.66;;;7.13;100.00
19831;BME280;10076;52.008;4.708;2024-03-07T06:17:42;102500.78;;;7.16;100.00
19831;BME280;10076;52.008;4.708;2024-03-07T06:20:14;102499.53;;;7.00;100.00
19831;BME280;10076;52.008;4.708;2024-03-07T06:22:48;102500.56;;;6.95;100.00
19831;BME280;10076;52.008;4.708;2024-03-07T06:25:18;102499.31;;;7.08;100.00
19831;BME280;10076;52.008;4.708;2024-03-07T06:27:46;102500.69;;;6.90;100.00
19831;BME280;10076;52.008;4.708;2024-03-07T06:30:15;102504.19;;;6.91;100.00
19831;BME280;10076;52.008;4.708;2024-03-07T06:32:46;102496.97;;;6.99;100.00
19831;BME280;10076;52.008;4.708;2024-03-07T06:35:11;102488.63;;;6.85;100.00
19831;BME280;10076;52.008;4.708;2024-03-07T06:37:36;102496.03;;;7.00;100.00
19831;BME280;10076;52.008;4.708;2024-03-07T06:40:02;102490.06;;;6.95;100.00
19831;BME280;10076;52.008;4.708;2024-03-07T06:42:31;102504.38;;;7.14;100.00
19831;BME280;10076;52.008;4.708;2024-03-07T06:44:58;102495.31;;;6.95;100.00
19831;BME280;10076;52.008;4.708;2024-03-07T06:47:23;102496.00;;;7.01;100.00
19831;BME280;10076;52.008;4.708;2024-03-07T06:49:48;102493.63;;;6.92;100.00
19831;BME280;10076;52.008;4.708;2024-03-07T06:52:14;102495.06;;;7.04;100.00
19831;BME280;10076;52.008;4.708;2024-03-07T06:54:40;102498.78;;;6.97;100.00
19831;BME280;10076;52.008;4.708;2024-03-07T06:57:06;102489.44;;;7.16;100.00
19831;BME280;10076;52.008;4.708;2024-03-07T06:59:31;102493.03;;;7.12;100.00
19831;BME280;10076;52.008;4.708;2024-03-07T07:01:56;102487.13;;;7.05;100.00
19831;BME280;10076;52.008;4.708;2024-03-07T07:04:23;102483.88;;;7.25;100.00
19831;BME280;10076;52.008;4.708;2024-03-07T07:06:50;102490.75;;;7.29;100.00
19831;BME280;10076;52.008;4.708;2024-03-07T07:09:15;102491.00;;;7.21;100.00
19831;BME280;10076;52.008;4.708;2024-03-07T07:11:44;102488.06;;;7.32;100.00
19831;BME280;10076;52.008;4.708;2024-03-07T07:14:10;102495.63;;;7.41;100.00
19831;BME280;10076;52.008;4.708;2024-03-07T07:16:36;102499.94;;;7.43;100.00
19831;BME280;10076;52.008;4.708;2024-03-07T07:19:06;102495.56;;;7.44;100.00
19831;BME280;10076;52.008;4.708;2024-03-07T07:21:32;102501.84;;;7.38;100.00
19831;BME280;10076;52.008;4.708;2024-03-07T07:23:57;102488.19;;;7.54;100.00
19831;BME280;10076;52.008;4.708;2024-03-07T07:26:23;102503.84;;;7.57;100.00
19831;BME280;10076;52.008;4.708;2024-03-07T07:28:48;102496.38;;;7.71;100.00
19831;BME280;10076;52.008;4.708;2024-03-07T07:31:13;102498.13;;;7.72;100.00
19831;BME280;10076;52.008;4.708;2024-03-07T07:33:38;102500.03;;;7.67;100.00
19831;BME280;10076;52.008;4.708;2024-03-07T07:36:04;102498.16;;;7.71;100.00
19831;BME280;10076;52.008;4.708;2024-03-07T07:38:29;102497.91;;;7.78;100.00
19831;BME280;10076;52.008;4.708;2024-03-07T07:40:55;102500.16;;;7.89;100.00
19831;BME280;10076;52.008;4.708;2024-03-07T07:43:20;102504.97;;;7.76;100.00
19831;BME280;10076;52.008;4.708;2024-03-07T07:45:46;102497.34;;;7.95;100.00
19831;BME280;10076;52.008;4.708;2024-03-07T07:48:11;102498.09;;;7.98;100.00
19831;BME280;10076;52.008;4.708;2024-03-07T07:50:36;102504.59;;;7.88;100.00
19831;BME280;10076;52.008;4.708;2024-03-07T07:53:02;102502.31;;;8.04;100.00
19831;BME280;10076;52.008;4.708;2024-03-07T07:55:32;102491.34;;;8.17;100.00
19831;BME280;10076;52.008;4.708;2024-03-07T07:57:59;102488.16;;;8.32;100.00
19831;BME280;10076;52.008;4.708;2024-03-07T08:00:26;102494.38;;;8.31;100.00
19831;BME280;10076;52.008;4.708;2024-03-07T08:05:28;102495.94;;;8.59;100.00
19831;BME280;10076;52.008;4.708;2024-03-07T08:07:58;102495.19;;;8.56;100.00
19831;BME280;10076;52.008;4.708;2024-03-07T08:10:25;102500.16;;;8.65;100.00
19831;BME280;10076;52.008;4.708;2024-03-07T08:12:51;102490.69;;;8.59;100.00
19831;BME280;10076;52.008;4.708;2024-03-07T08:15:17;102487.84;;;8.88;100.00
19831;BME280;10076;52.008;4.708;2024-03-07T08:17:43;102488.19;;;8.79;100.00
19831;BME280;10076;52.008;4.708;2024-03-07T08:20:12;102485.41;;;9.05;100.00
19831;BME280;10076;52.008;4.708;2024-03-07T08:22:39;102488.50;;;9.16;100.00
19831;BME280;10076;52.008;4.708;2024-03-07T08:25:09;102499.06;;;9.37;100.00
19831;BME280;10076;52.008;4.708;2024-03-07T08:27:38;102488.94;;;9.48;100.00
19831;BME280;10076;52.008;4.708;2024-03-07T08:30:05;102487.91;;;9.73;100.00
19831;BME280;10076;52.008;4.708;2024-03-07T08:32:38;102494.41;;;9.86;100.00
19831;BME280;10076;52.008;4.708;2024-03-07T08:35:05;102492.66;;;9.85;100.00
19831;BME280;10076;52.008;4.708;2024-03-07T08:37:44;102492.69;;;10.07;100.00
19831;BME280;10076;52.008;4.708;2024-03-07T08:40:10;102490.44;;;10.18;100.00
19831;BME280;10076;52.008;4.708;2024-03-07T08:42:37;102485.28;;;10.34;100.00
19831;BME280;10076;52.008;4.708;2024-03-07T08:45:04;102484.88;;;10.24;100.00
19831;BME280;10076;52.008;4.708;2024-03-07T08:47:34;102484.50;;;10.32;100.00
19831;BME280;10076;52.008;4.708;2024-03-07T08:50:00;102489.66;;;10.35;100.00
19831;BME280;10076;52.008;4.708;2024-03-07T08:52:26;102481.06;;;10.50;100.00
19831;BME280;10076;52.008;4.708;2024-03-07T08:54:52;102478.47;;;10.69;100.00
19831;BME280;10076;52.008;4.708;2024-03-07T08:57:18;102475.06;;;10.85;100.00
19831;BME280;10076;52.008;4.708;2024-03-07T08:59:44;102479.56;;;11.01;100.00
19831;BME280;10076;52.008;4.708;2024-03-07T09:02:10;102476.13;;;11.18;100.00
19831;BME280;10076;52.008;4.708;2024-03-07T09:04:37;102472.19;;;11.26;100.00
19831;BME280;10076;52.008;4.708;2024-03-07T09:07:03;102467.66;;;11.47;100.00
19831;BME280;10076;52.008;4.708;2024-03-07T09:09:29;102463.66;;;11.92;100.00
19831;BME280;10076;52.008;4.708;2024-03-07T09:11:54;102464.28;;;12.63;100.00
19831;BME280;10076;52.008;4.708;2024-03-07T09:14:19;102473.88;;;12.98;100.00
19831;BME280;10076;52.008;4.708;2024-03-07T09:16:45;102471.41;;;13.56;100.00
19831;BME280;10076;52.008;4.708;2024-03-07T09:19:13;102463.91;;;13.78;100.00
19831;BME280;10076;52.008;4.708;2024-03-07T09:21:40;102466.44;;;14.10;100.00
19831;BME280;10076;52.008;4.708;2024-03-07T09:24:08;102473.50;;;14.53;100.00
19831;BME280;10076;52.008;4.708;2024-03-07T09:26:33;102474.94;;;15.14;100.00
19831;BME280;10076;52.008;4.708;2024-03-07T09:29:01;102464.16;;;15.96;100.00
19831;BME280;10076;52.008;4.708;2024-03-07T09:31:31;102470.81;;;16.15;100.00
19831;BME280;10076;52.008;4.708;2024-03-07T09:33:56;102471.63;;;16.67;100.00
19831;BME280;10076;52.008;4.708;2024-03-07T09:36:23;102460.31;;;17.60;100.00
19831;BME280;10076;52.008;4.708;2024-03-07T09:38:49;102463.59;;;17.76;100.00
19831;BME280;10076;52.008;4.708;2024-03-07T09:41:14;102460.00;;;17.64;100.00
19831;BME280;10076;52.008;4.708;2024-03-07T09:43:43;102462.78;;;18.66;100.00
19831;BME280;10076;52.008;4.708;2024-03-07T09:46:09;102461.41;;;19.47;100.00
19831;BME280;10076;52.008;4.708;2024-03-07T09:48:35;102470.03;;;20.24;100.00
19831;BME280;10076;52.008;4.708;2024-03-07T09:51:02;102465.56;;;20.34;100.00
19831;BME280;10076;52.008;4.708;2024-03-07T09:53:29;102457.28;;;19.86;100.00
19831;BME280;10076;52.008;4.708;2024-03-07T09:55:56;102452.72;;;19.97;100.00
19831;BME280;10076;52.008;4.708;2024-03-07T09:58:23;102453.97;;;19.93;100.00
19831;BME280;10076;52.008;4.708;2024-03-07T10:00:51;102447.91;;;20.32;100.00
19831;BME280;10076;52.008;4.708;2024-03-07T10:03:20;102457.31;;;20.67;100.00
19831;BME280;10076;52.008;4.708;2024-03-07T10:05:47;102456.59;;;20.65;100.00
19831;BME280;10076;52.008;4.708;2024-03-07T10:08:12;102463.13;;;21.41;99.86
19831;BME280;10076;52.008;4.708;2024-03-07T10:10:39;102455.47;;;21.27;96.70
19831;BME280;10076;52.008;4.708;2024-03-07T10:13:04;102450.81;;;21.39;96.50
19831;BME280;10076;52.008;4.708;2024-03-07T10:15:31;102447.56;;;21.35;98.16
19831;BME280;10076;52.008;4.708;2024-03-07T10:17:58;102451.78;;;21.38;93.65
19831;BME280;10076;52.008;4.708;2024-03-07T10:20:23;102436.72;;;21.55;93.20
19831;BME280;10076;52.008;4.708;2024-03-07T10:22:50;102433.47;;;21.61;92.49
19831;BME280;10076;52.008;4.708;2024-03-07T10:25:20;102430.03;;;22.44;91.45
19831;BME280;10076;52.008;4.708;2024-03-07T10:27:47;102430.03;;;22.54;87.74
19831;BME280;10076;52.008;4.708;2024-03-07T10:30:14;102437.44;;;22.33;88.40
19831;BME280;10076;52.008;4.708;2024-03-07T10:32:51;102444.25;;;22.83;87.83
19831;BME280;10076;52.008;4.708;2024-03-07T10:35:23;102435.13;;;23.02;85.88
19831;BME280;10076;52.008;4.708;2024-03-07T10:37:55;102429.63;;;23.21;82.26
19831;BME280;10076;52.008;4.708;2024-03-07T10:40:22;102429.44;;;23.32;83.55
19831;BME280;10076;52.008;4.708;2024-03-07T10:42:49;102428.44;;;24.20;80.16
19831;BME280;10076;52.008;4.708;2024-03-07T10:45:20;102423.84;;;24.89;79.16
19831;BME280;10076;52.008;4.708;2024-03-07T10:47:56;102422.09;;;24.46;76.20
19831;BME280;10076;52.008;4.708;2024-03-07T11:01:30;102422.66;;;25.97;70.29
19831;BME280;10076;52.008;4.708;2024-03-07T11:03:56;102417.19;;;25.66;68.83
19831;BME280;10076;52.008;4.708;2024-03-07T11:06:24;102416.22;;;26.30;68.80
19831;BME280;10076;52.008;4.708;2024-03-07T11:08:51;102416.88;;;25.77;68.46
19831;BME280;10076;52.008;4.708;2024-03-07T11:11:17;102421.63;;;26.06;66.80
19831;BME280;10076;52.008;4.708;2024-03-07T11:13:43;102411.88;;;27.29;64.77
19831;BME280;10076;52.008;4.708;2024-03-07T11:16:09;102406.84;;;28.53;60.60
19831;BME280;10076;52.008;4.708;2024-03-07T11:18:35;102411.03;;;28.04;56.48
19831;BME280;10076;52.008;4.708;2024-03-07T11:21:01;102410.19;;;27.59;56.12
19831;BME280;10076;52.008;4.708;2024-03-07T11:23:30;102403.44;;;27.77;55.86
19831;BME280;10076;52.008;4.708;2024-03-07T11:26:05;102396.13;;;28.37;53.78
19831;BME280;10076;52.008;4.708;2024-03-07T11:28:43;102391.56;;;28.15;54.66
19831;BME280;10076;52.008;4.708;2024-03-07T11:31:27;102398.13;;;28.57;50.36
19831;BME280;10076;52.008;4.708;2024-03-07T11:34:12;102384.06;;;28.17;54.07
19831;BME280;10076;52.008;4.708;2024-03-07T11:36:47;102375.59;;;28.63;52.18
19831;BME280;10076;52.008;4.708;2024-03-07T11:39:46;102371.50;;;28.53;51.37
19831;BME280;10076;52.008;4.708;2024-03-07T11:42:28;102370.84;;;28.14;49.87
19831;BME280;10076;52.008;4.708;2024-03-07T11:44:56;102367.28;;;28.13;48.86
19831;BME280;10076;52.008;4.708;2024-03-07T11:47:23;102355.81;;;28.55;49.92
19831;BME280;10076;52.008;4.708;2024-03-07T11:49:52;102359.28;;;28.34;48.13
19831;BME280;10076;52.008;4.708;2024-03-07T11:52:18;102354.31;;;28.95;49.23
19831;BME280;10076;52.008;4.708;2024-03-07T11:54:44;102344.09;;;29.68;48.80
19831;BME280;10076;52.008;4.708;2024-03-07T11:57:14;102350.47;;;30.02;45.10
19831;BME280;10076;52.008;4.708;2024-03-07T11:59:41;102337.53;;;28.92;44.81
19831;BME280;10076;52.008;4.708;2024-03-07T12:02:13;102334.00;;;29.12;45.61
19831;BME280;10076;52.008;4.708;2024-03-07T12:04:43;102316.28;;;28.38;45.56
19831;BME280;10076;52.008;4.708;2024-03-07T12:07:08;102321.19;;;28.05;44.94
19831;BME280;10076;52.008;4.708;2024-03-07T12:09:37;102317.72;;;26.07;47.24
19831;BME280;10076;52.008;4.708;2024-03-07T12:12:04;102309.97;;;25.73;48.23
19831;BME280;10076;52.008;4.708;2024-03-07T12:14:30;102320.38;;;26.31;49.09
19831;BME280;10076;52.008;4.708;2024-03-07T12:16:55;102320.53;;;26.84;49.72
19831;BME280;10076;52.008;4.708;2024-03-07T12:19:22;102314.53;;;28.08;48.83
19831;BME280;10076;52.008;4.708;2024-03-07T12:21:48;102305.25;;;27.88;46.01
19831;BME280;10076;52.008;4.708;2024-03-07T12:24:14;102289.81;;;27.22;48.17
19831;BME280;10076;52.008;4.708;2024-03-07T12:26:43;102286.56;;;27.85;46.05
19831;BME280;10076;52.008;4.708;2024-03-07T12:29:12;102292.91;;;28.00;48.18
19831;BME280;10076;52.008;4.708;2024-03-07T12:31:39;102288.50;;;27.62;47.36
19831;BME280;10076;52.008;4.708;2024-03-07T12:34:04;102284.47;;;26.75;49.46
19831;BME280;10076;52.008;4.708;2024-03-07T12:36:31;102292.56;;;27.58;48.28
19831;BME280;10076;52.008;4.708;2024-03-07T12:39:01;102269.63;;;27.69;47.18
19831;BME280;10076;52.008;4.708;2024-03-07T12:41:50;102277.06;;;29.11;45.19
19831;BME280;10076;52.008;4.708;2024-03-07T12:44:19;102267.09;;;28.97;44.99
19831;BME280;10076;52.008;4.708;2024-03-07T12:46:47;102267.31;;;29.85;46.06
19831;BME280;10076;52.008;4.708;2024-03-07T12:49:14;102261.72;;;29.66;44.13
19831;BME280;10076;52.008;4.708;2024-03-07T12:51:41;102259.72;;;30.42;44.71
19831;BME280;10076;52.008;4.708;2024-03-07T12:54:07;102259.41;;;31.11;43.48
19831;BME280;10076;52.008;4.708;2024-03-07T12:56:37;102262.56;;;32.30;42.64
19831;BME280;10076;52.008;4.708;2024-03-07T12:59:05;102262.16;;;31.24;40.26
19831;BME280;10076;52.008;4.708;2024-03-07T13:01:35;102243.44;;;28.97;44.10